Time;durP1;ratioP1;P1;durP2;ratioP2;P2;SDS_P1;SDS_P2;PMS_P1;PMS_P2;Temp;Humidity;BMP_temperature;BMP_pressure;BME280_temperature;BME280_humidity;BME280_pressure;Samples;Min_cycle;Max_cycle;Signal;HPM_P1;HPM_P2
2023/08/17 00:01:51;;;;;;;4.65;2.33;;;;;;;17.02;85.67;102129.09;4912896;29;20050;-78
2023/08/17 00:04:16;;;;;;;6.97;1.95;;;;;;;17.00;85.27;102134.78;4916194;29;20032;-76
2023/08/17 00:06:42;;;;;;;6.05;2.25;;;;;;;16.99;85.65;102132.34;4889901;29;20106;-78
2023/08/17 00:09:09;;;;;;;7.30;2.40;;;;;;;16.97;86.24;102131.81;4877160;29;20080;-79
2023/08/17 00:11:35;;;;;;;6.55;2.63;;;;;;;16.92;86.73;102132.63;4896895;29;20066;-77
2023/08/17 00:14:01;;;;;;;5.88;1.98;;;;;;;16.91;86.38;102131.03;4878582;29;20053;-75
2023/08/17 00:16:27;;;;;;;9.88;3.55;;;;;;;16.87;86.66;102125.38;4884966;29;20491;-77
2023/08/17 00:18:52;;;;;;;4.70;2.25;;;;;;;16.86;86.63;102128.34;4909847;29;20119;-78
2023/08/17 00:21:19;;;;;;;5.40;2.20;;;;;;;16.82;86.36;102127.28;4876775;29;20728;-79
2023/08/17 00:23:45;;;;;;;8.57;2.60;;;;;;;16.78;86.26;102126.22;4878490;29;20093;-79
2023/08/17 00:26:11;;;;;;;4.68;1.92;;;;;;;16.79;86.28;102127.81;4892915;29;20454;-76
2023/08/17 00:28:37;;;;;;;6.93;2.35;;;;;;;16.79;86.79;102125.13;4878978;29;20507;-77
2023/08/17 00:31:03;;;;;;;6.65;2.25;;;;;;;16.75;86.17;102126.78;4877770;29;20036;-77
2023/08/17 00:33:29;;;;;;;8.57;2.80;;;;;;;16.74;86.89;102119.75;4892983;29;20040;-77
2023/08/17 00:35:55;;;;;;;5.97;2.00;;;;;;;16.70;86.02;102108.66;4900276;29;20627;-77
2023/08/17 00:38:22;;;;;;;6.25;1.70;;;;;;;16.71;86.39;102114.88;4907510;29;20060;-79
2023/08/17 00:40:47;;;;;;;7.18;2.00;;;;;;;16.67;86.34;102111.09;4910950;29;20028;-76
2023/08/17 00:43:13;;;;;;;4.75;1.50;;;;;;;16.69;86.18;102095.41;4894474;29;20037;-76
2023/08/17 00:45:41;;;;;;;4.32;1.90;;;;;;;16.68;85.60;102101.91;4885828;29;20087;-78
2023/08/17 00:48:07;;;;;;;5.72;1.77;;;;;;;16.67;85.33;102092.16;4891971;29;20107;-76
2023/08/17 00:50:34;;;;;;;6.03;1.88;;;;;;;16.67;84.23;102097.56;4889148;29;20028;-78
2023/08/17 00:53:00;;;;;;;3.55;1.70;;;;;;;16.70;83.12;102097.03;4893713;29;20044;-78
2023/08/17 00:55:28;;;;;;;3.50;1.83;;;;;;;16.71;83.62;102088.63;4923661;29;20123;-78
2023/08/17 00:57:56;;;;;;;5.65;1.90;;;;;;;16.69;84.49;102090.78;4884305;29;20072;-77
2023/08/17 01:00:22;;;;;;;7.53;1.80;;;;;;;16.67;84.76;102090.28;4900603;29;20552;-76
2023/08/17 01:02:48;;;;;;;5.38;1.63;;;;;;;16.61;85.00;102075.97;4908987;29;20048;-76
2023/08/17 01:05:16;;;;;;;3.78;1.58;;;;;;;16.63;85.30;102075.66;4925809;29;20503;-78
2023/08/17 01:07:41;;;;;;;7.00;1.92;;;;;;;16.61;84.79;102084.06;4915314;29;20118;-77
2023/08/17 01:10:08;;;;;;;6.47;2.28;;;;;;;16.60;83.67;102085.16;4897513;29;20082;-76
2023/08/17 01:12:58;;;;;;;6.43;2.03;;;;;;;16.64;83.09;102085.41;4895604;29;20079;-78
2023/08/17 01:15:31;;;;;;;6.80;1.60;;;;;;;16.64;83.78;102083.50;4881329;29;20032;-76
2023/08/17 01:18:16;;;;;;;4.90;1.52;;;;;;;16.64;83.39;102072.69;4896692;29;20482;-75
2023/08/17 01:20:43;;;;;;;4.38;1.80;;;;;;;16.63;83.70;102076.47;4894114;29;20565;-77
2023/08/17 01:23:09;;;;;;;7.13;1.77;;;;;;;16.63;84.00;102083.78;4912093;29;20032;-77
2023/08/17 01:25:38;;;;;;;3.67;2.00;;;;;;;16.65;82.67;102085.13;4876201;29;20035;-79
2023/08/17 01:28:05;;;;;;;5.20;1.55;;;;;;;16.66;83.62;102091.34;4892278;29;20632;-76
2023/08/17 01:30:55;;;;;;;6.88;2.35;;;;;;;16.69;82.65;102092.69;4897252;29;20044;-76
2023/08/17 01:33:29;;;;;;;3.33;1.80;;;;;;;16.68;82.66;102094.59;4892469;29;20696;-77
2023/08/17 01:36:39;;;;;;;6.43;1.85;;;;;;;16.69;82.29;102096.19;4906593;29;20044;-77
2023/08/17 01:39:08;;;;;;;4.65;1.90;;;;;;;16.71;81.85;102096.75;4872809;29;20055;-76
2023/08/17 01:41:35;;;;;;;5.05;2.00;;;;;;;16.72;80.96;102097.56;4911804;29;20032;-76
2023/08/17 01:44:01;;;;;;;4.45;1.80;;;;;;;16.75;82.18;102092.41;4934425;29;20399;-78
2023/08/17 01:46:33;;;;;;;3.22;1.85;;;;;;;16.76;82.79;102093.22;4928773;29;20087;-73
2023/08/17 01:48:59;;;;;;;5.35;1.80;;;;;;;16.74;82.33;102098.94;4912416;29;20061;-74
2023/08/17 01:51:25;;;;;;;4.43;1.70;;;;;;;16.74;81.74;102095.41;4897012;29;20032;-75
2023/08/17 01:53:51;;;;;;;3.47;1.75;;;;;;;16.75;82.11;102102.44;4911814;29;20131;-77
2023/08/17 01:56:17;;;;;;;5.00;1.75;;;;;;;16.76;81.82;102094.03;4886051;29;20100;-72
2023/08/17 01:58:45;;;;;;;7.75;2.35;;;;;;;16.76;80.06;102095.94;4898583;29;20155;-75
2023/08/17 02:01:10;;;;;;;4.70;1.60;;;;;;;16.76;80.92;102095.94;4915543;29;20040;-77
2023/08/17 02:03:36;;;;;;;5.68;1.80;;;;;;;16.76;80.58;102098.63;4911409;29;20099;-72
2023/08/17 02:06:02;;;;;;;4.72;1.60;;;;;;;16.75;81.13;102105.94;4883139;29;20043;-76
2023/08/17 02:08:28;;;;;;;3.25;1.45;;;;;;;16.73;80.85;102096.47;4904212;29;20035;-74
2023/08/17 02:10:53;;;;;;;5.18;1.45;;;;;;;16.73;81.55;102086.50;4883235;29;20036;-74
2023/08/17 02:13:20;;;;;;;6.25;1.88;;;;;;;16.74;81.38;102092.72;4902236;29;20043;-76
2023/08/17 02:15:47;;;;;;;5.47;1.80;;;;;;;16.70;80.65;102092.44;4915640;29;20182;-73
2023/08/17 02:18:12;;;;;;;4.30;1.40;;;;;;;16.68;80.79;102089.19;4894155;29;20032;-73
2023/08/17 02:20:39;;;;;;;3.92;1.40;;;;;;;16.64;80.02;102080.78;4895381;29;20031;-75
2023/08/17 02:23:05;;;;;;;3.72;1.50;;;;;;;16.67;80.97;102082.16;4893971;29;20039;-73
2023/08/17 02:25:35;;;;;;;3.97;1.63;;;;;;;16.63;81.01;102081.88;4899983;29;20047;-79
2023/08/17 02:28:04;;;;;;;4.38;1.40;;;;;;;16.65;80.16;102090.53;4914774;29;20033;-76
2023/08/17 02:30:29;;;;;;;3.50;1.35;;;;;;;16.62;79.57;102080.28;4915471;29;20159;-73
2023/08/17 02:32:57;;;;;;;4.00;1.30;;;;;;;16.60;80.55;102082.47;4877786;29;20044;-74
2023/08/17 02:35:23;;;;;;;4.03;1.70;;;;;;;16.59;80.29;102082.72;4895622;29;20044;-76
2023/08/17 02:37:49;;;;;;;;;;;;;;;16.59;80.48;102088.94;4919790;29;20524;-77
2023/08/17 02:40:15;;;;;;;6.20;1.40;;;;;;;16.60;80.32;102077.03;4899186;29;19919;-77
2023/08/17 02:42:40;;;;;;;4.32;1.63;;;;;;;16.60;80.70;102082.47;4879725;29;20420;-78
2023/08/17 02:45:08;;;;;;;4.93;1.67;;;;;;;16.60;80.83;102073.53;4919773;29;20055;-75
2023/08/17 02:47:35;;;;;;;5.35;1.60;;;;;;;16.57;82.28;102072.19;4881911;29;20203;-74
2023/08/17 02:50:01;;;;;;;3.40;1.40;;;;;;;16.58;80.95;102068.38;4909673;29;20036;-74
2023/08/17 02:52:26;;;;;;;5.32;1.50;;;;;;;16.57;82.60;102066.78;4899176;29;20511;-74
2023/08/17 02:54:52;;;;;;;6.32;1.58;;;;;;;16.53;81.24;102059.50;4900369;29;20043;-75
2023/08/17 02:57:20;;;;;;;3.58;1.33;;;;;;;16.58;80.72;102068.38;4900000;29;20090;-75
2023/08/17 02:59:46;;;;;;;4.63;1.85;;;;;;;16.58;80.28;102065.69;4883724;29;20055;-76
2023/08/17 03:02:11;;;;;;;5.47;1.33;;;;;;;16.57;80.71;102061.34;4903637;29;20044;-73
2023/08/17 03:04:37;;;;;;;5.88;2.22;;;;;;;16.56;81.22;102062.44;4900684;29;20067;-74
2023/08/17 03:07:02;;;;;;;;;;;;;;;16.57;80.58;102074.88;4914563;29;20036;-76
2023/08/17 03:09:28;;;;;;;4.20;1.45;;;;;;;16.58;80.58;102068.38;4891281;29;19978;-74
2023/08/17 03:11:53;;;;;;;6.50;1.88;;;;;;;16.62;80.62;102069.47;4893184;29;20334;-76
2023/08/17 03:14:19;;;;;;;4.75;1.70;;;;;;;16.59;81.91;102070.00;4900179;29;20480;-77
2023/08/17 03:16:45;;;;;;;5.20;1.77;;;;;;;16.62;80.99;102074.88;4885442;29;20051;-78
2023/08/17 03:19:11;;;;;;;3.72;1.50;;;;;;;16.59;81.63;102080.81;4893459;29;20104;-76
2023/08/17 03:21:37;;;;;;;4.75;1.88;;;;;;;16.59;80.88;102075.41;4902972;29;20043;-79
2023/08/17 03:24:04;;;;;;;3.42;1.50;;;;;;;16.59;81.42;102066.47;4914333;29;20048;-75
2023/08/17 03:26:30;;;;;;;4.53;1.52;;;;;;;16.57;81.59;102072.19;4881315;29;20044;-76
2023/08/17 03:28:56;;;;;;;4.38;1.95;;;;;;;16.58;81.41;102070.28;4909619;29;20059;-76
2023/08/17 03:31:22;;;;;;;3.88;1.63;;;;;;;16.59;81.95;102075.41;4879156;29;20050;-75
2023/08/17 03:33:48;;;;;;;7.15;2.22;;;;;;;16.62;82.20;102074.88;4896172;29;20047;-77
2023/08/17 03:36:15;;;;;;;5.65;1.70;;;;;;;16.62;82.17;102091.09;4907746;29;20040;-76
2023/08/17 03:38:41;;;;;;;5.60;2.35;;;;;;;16.62;82.06;102080.28;4896308;29;20067;-77
2023/08/17 03:41:07;;;;;;;5.03;2.00;;;;;;;16.63;81.65;102076.47;4882342;29;20078;-79
2023/08/17 03:43:33;;;;;;;5.05;1.38;;;;;;;16.64;82.39;102080.78;4898578;29;20024;-76
2023/08/17 03:45:59;;;;;;;7.70;2.00;;;;;;;16.63;81.82;102076.47;4922825;29;20395;-78
2023/08/17 03:48:25;;;;;;;3.75;1.77;;;;;;;16.65;82.43;102077.00;4894922;29;20042;-76
2023/08/17 03:50:54;;;;;;;5.38;1.85;;;;;;;16.63;82.36;102081.88;4881313;29;20044;-74
2023/08/17 03:53:21;;;;;;;7.57;1.80;;;;;;;16.63;82.12;102081.88;4882359;29;20055;-79
2023/08/17 03:55:48;;;;;;;6.07;1.95;;;;;;;16.65;82.99;102079.72;4897536;29;20047;-79
2023/08/17 03:58:14;;;;;;;4.15;1.90;;;;;;;16.61;83.08;102075.97;4878487;29;20036;-76
2023/08/17 04:00:40;;;;;;;8.13;2.10;;;;;;;16.61;82.82;102081.38;4909491;29;20135;-76
2023/08/17 04:03:06;;;;;;;3.65;1.55;;;;;;;16.62;83.26;102074.06;4911108;29;20124;-76
2023/08/17 04:05:32;;;;;;;3.85;1.75;;;;;;;16.62;83.08;102080.28;4915169;29;20035;-77
2023/08/17 04:08:02;;;;;;;4.45;1.50;;;;;;;16.62;82.74;102074.88;4895193;29;20131;-78
2023/08/17 04:10:29;;;;;;;4.65;1.52;;;;;;;16.61;82.91;102078.66;4896915;29;20044;-76
2023/08/17 04:12:56;;;;;;;3.63;1.80;;;;;;;16.62;82.98;102080.28;4897702;29;20103;-75
2023/08/17 04:15:22;;;;;;;5.22;1.55;;;;;;;16.61;82.76;102083.25;4908814;29;20086;-77
2023/08/17 04:17:47;;;;;;;5.35;1.92;;;;;;;16.62;83.31;102088.38;4894742;29;20068;-78
2023/08/17 04:20:14;;;;;;;5.07;1.55;;;;;;;16.60;84.21;102087.88;4915744;29;20039;-77
2023/08/17 04:22:39;;;;;;;3.97;1.73;;;;;;;16.58;84.18;102087.31;4901181;29;20039;-76
2023/08/17 04:25:05;;;;;;;5.90;1.70;;;;;;;16.57;83.90;102093.00;4915427;29;20036;-76
2023/08/17 04:27:31;;;;;;;5.63;1.73;;;;;;;16.57;83.53;102095.72;4901473;29;20051;-77
2023/08/17 04:29:57;;;;;;;4.53;1.50;;;;;;;16.58;84.43;102095.44;4905512;29;20156;-79
2023/08/17 04:32:23;;;;;;;4.40;1.77;;;;;;;16.58;84.45;102100.84;4910855;29;20043;-76
2023/08/17 04:34:49;;;;;;;5.88;2.17;;;;;;;16.56;84.32;102097.59;4887912;29;20044;-78
2023/08/17 04:37:15;;;;;;;7.00;2.13;;;;;;;16.58;84.09;102097.31;4911722;29;20040;-78
2023/08/17 04:39:43;;;;;;;4.68;2.20;;;;;;;16.59;84.37;102101.66;4900739;29;20039;-76
2023/08/17 04:42:10;;;;;;;6.88;1.80;;;;;;;16.59;84.97;102101.66;4891691;29;20096;-77
2023/08/17 04:44:35;;;;;;;4.80;2.13;;;;;;;16.58;84.93;102100.84;4898315;29;20035;-78
2023/08/17 04:47:02;;;;;;;3.70;1.75;;;;;;;16.60;84.26;102103.28;4882403;29;20569;-78
2023/08/17 04:49:27;;;;;;;5.90;1.50;;;;;;;16.61;84.66;102108.41;4900822;29;20036;-78
2023/08/17 04:51:53;;;;;;;8.85;1.80;;;;;;;16.63;84.71;102113.53;4901218;29;20087;-77
2023/08/17 04:54:19;;;;;;;6.38;1.88;;;;;;;16.61;84.76;102111.13;4879750;29;20036;-77
2023/08/17 04:56:45;;;;;;;5.03;2.03;;;;;;;16.59;85.02;102109.75;4909242;29;20083;-76
2023/08/17 04:59:11;;;;;;;6.55;2.20;;;;;;;16.60;85.12;102112.22;4897631;29;20782;-78
2023/08/17 05:01:38;;;;;;;7.15;2.00;;;;;;;16.60;84.62;102114.91;4895889;29;20131;-78
2023/08/17 05:04:04;;;;;;;7.07;2.08;;;;;;;16.62;85.14;102118.13;4919777;29;20075;-77
2023/08/17 05:06:34;;;;;;;3.15;1.63;;;;;;;16.61;84.65;102116.53;4915514;29;20114;-75
2023/08/17 05:09:01;;;;;;;4.82;1.60;;;;;;;16.64;85.28;102120.56;4912976;29;20050;-77
2023/08/17 05:11:27;;;;;;;11.57;2.10;;;;;;;16.62;85.58;102123.56;4904447;29;20123;-79
2023/08/17 05:13:55;;;;;;;4.78;2.10;;;;;;;16.58;85.77;102122.47;4875762;29;20071;-78
2023/08/17 05:16:21;;;;;;;3.67;1.85;;;;;;;16.60;85.83;102131.13;4916712;29;20270;-78
2023/08/17 05:18:48;;;;;;;7.35;2.38;;;;;;;16.60;86.17;102138.44;4908339;29;20044;-76
2023/08/17 05:21:15;;;;;;;5.38;2.13;;;;;;;16.61;86.69;102148.19;4898086;29;20178;-79
2023/08/17 05:23:41;;;;;;;3.95;1.88;;;;;;;16.59;87.81;102163.84;4931204;29;20391;-77
2023/08/17 05:26:08;;;;;;;6.35;2.30;;;;;;;16.60;88.09;102160.09;4894736;29;20993;-76
2023/08/17 05:28:34;;;;;;;4.28;2.20;;;;;;;16.60;88.60;102162.78;4892220;29;20624;-77
2023/08/17 05:31:08;;;;;;;7.18;1.75;;;;;;;16.58;88.39;102164.94;4884644;29;20036;-79
2023/08/17 05:33:37;;;;;;;5.13;2.20;;;;;;;16.57;89.31;102172.25;4929100;29;20039;-77
2023/08/17 05:36:03;;;;;;;4.55;1.90;;;;;;;16.55;89.13;102166.31;4890389;29;20100;-75
2023/08/17 05:38:29;;;;;;;5.75;2.10;;;;;;;16.53;89.69;102159.56;4893454;29;20070;-78
2023/08/17 05:40:56;;;;;;;4.35;2.00;;;;;;;16.49;89.95;102153.88;4904688;29;20118;-78
2023/08/17 05:43:22;;;;;;;7.47;2.40;;;;;;;16.49;90.54;102155.78;4905589;29;20044;-77
2023/08/17 05:45:48;;;;;;;4.28;2.50;;;;;;;16.47;90.61;102166.88;4895464;29;20048;-77
2023/08/17 05:48:13;;;;;;;;;;;;;;;16.47;91.36;102161.47;4881530;29;20032;-76
2023/08/17 05:50:42;;;;;;;5.20;2.38;;;;;;;16.42;91.56;102155.25;4883080;29;20437;-79
2023/08/17 05:53:08;;;;;;;9.82;2.47;;;;;;;16.37;91.80;102159.59;4925796;29;20486;-77
2023/08/17 05:55:34;;;;;;;;;;;;;;;16.36;92.28;102151.75;4892615;29;20032;-77
2023/08/17 05:58:00;;;;;;;8.25;2.78;;;;;;;16.26;92.56;102149.09;4911212;29;19918;-79
2023/08/17 06:00:26;;;;;;;9.38;2.80;;;;;;;16.28;92.91;102141.50;4901530;29;20032;-78
2023/08/17 06:02:52;;;;;;;;;;;;;;;16.29;92.71;102146.63;4894899;29;20046;-78
2023/08/17 06:05:17;;;;;;;7.43;2.90;;;;;;;16.23;92.99;102136.91;4913396;29;19918;-78
2023/08/17 06:07:43;;;;;;;;;;;;;;;16.25;93.20;102144.75;4912730;29;20044;-75
2023/08/17 06:10:10;;;;;;;6.78;2.40;;;;;;;16.21;93.34;102143.69;4896285;29;19919;-79
2023/08/17 06:12:35;;;;;;;7.05;2.53;;;;;;;16.18;93.21;102133.41;4883042;29;20039;-78
2023/08/17 06:15:02;;;;;;;;;;;;;;;16.22;93.91;102143.41;4896435;29;20052;-79
2023/08/17 06:17:28;;;;;;;6.93;2.60;;;;;;;16.15;93.57;102133.97;4905502;29;19915;-78
2023/08/17 06:19:55;;;;;;;9.45;3.10;;;;;;;16.16;93.73;102141.78;4927949;29;20032;-76
2023/08/17 06:22:23;;;;;;;6.95;2.72;;;;;;;16.17;94.29;102142.59;4896552;29;20039;-79
2023/08/17 06:24:48;;;;;;;;;;;;;;;16.17;94.19;102145.31;4913429;29;20036;-78
2023/08/17 06:27:15;;;;;;;6.60;2.80;;;;;;;16.13;94.37;102146.94;4891303;29;19922;-79
2023/08/17 06:29:40;;;;;;;6.78;2.60;;;;;;;16.13;94.22;102155.06;4868554;29;1234035;-77
2023/08/17 06:32:08;;;;;;;;;;;;;;;16.14;94.06;102149.38;4903390;29;20065;-77
2023/08/17 06:34:34;;;;;;;9.25;2.47;;;;;;;16.09;94.29;102155.56;4899264;29;19923;-81
2023/08/17 06:37:01;;;;;;;;;;;;;;;16.16;94.23;102157.19;4881375;29;20119;-77
2023/08/17 06:39:27;;;;;;;5.85;2.55;;;;;;;16.10;94.03;102161.78;4905683;29;19925;-78
2023/08/17 06:41:54;;;;;;;5.32;2.60;;;;;;;16.08;94.21;102155.84;4904680;29;20049;-78
2023/08/17 06:44:20;;;;;;;5.85;3.00;;;;;;;16.13;94.30;102163.16;4898674;29;20066;-80
2023/08/17 06:46:46;;;;;;;7.40;2.85;;;;;;;16.09;94.23;102144.78;4912472;29;20183;-78
2023/08/17 06:49:12;;;;;;;5.10;3.08;;;;;;;16.10;94.43;102159.09;4898442;29;20422;-78
2023/08/17 06:51:38;;;;;;;7.00;2.65;;;;;;;16.07;94.62;102149.66;4909345;29;20036;-78
2023/08/17 06:54:06;;;;;;;5.40;3.10;;;;;;;16.07;94.77;102155.06;4911366;29;20032;-79
2023/08/17 06:56:32;;;;;;;4.60;2.78;;;;;;;16.10;94.40;102153.69;4896425;29;20031;-77
2023/08/17 06:58:58;;;;;;;6.85;3.13;;;;;;;16.07;94.43;102149.66;4885882;29;20525;-78
2023/08/17 07:01:23;;;;;;;3.85;2.47;;;;;;;16.05;93.50;102148.28;4898191;29;20413;-79
2023/08/17 07:03:49;;;;;;;8.40;2.40;;;;;;;15.99;93.01;102142.09;4909553;29;20040;-78
2023/08/17 07:06:15;;;;;;;5.80;1.90;;;;;;;16.00;92.36;102149.13;4915936;29;20039;-79
2023/08/17 07:08:41;;;;;;;5.90;2.50;;;;;;;15.97;91.68;102141.53;4903302;29;20602;-79
2023/08/17 07:11:08;;;;;;;5.22;2.10;;;;;;;15.98;92.21;102139.66;4917208;29;20122;-77
2023/08/17 07:13:34;;;;;;;3.72;1.80;;;;;;;15.91;91.55;102134.50;4902619;29;20164;-78
2023/08/17 07:16:00;;;;;;;3.95;2.03;;;;;;;15.83;90.48;102118.84;4907372;29;20059;-78
2023/08/17 07:18:25;;;;;;;6.93;2.05;;;;;;;15.85;91.05;102124.81;4912076;29;20067;-76
2023/08/17 07:20:51;;;;;;;3.75;2.35;;;;;;;15.82;91.22;102136.16;4908846;29;20040;-76
2023/08/17 07:23:17;;;;;;;3.38;1.80;;;;;;;15.80;91.51;102143.72;4882518;29;20036;-78
2023/08/17 07:25:44;;;;;;;6.30;1.88;;;;;;;15.75;91.10;102141.00;4900389;29;20099;-77
2023/08/17 07:28:09;;;;;;;3.95;1.85;;;;;;;15.74;91.47;102134.81;4890797;29;20505;-77
2023/08/17 07:30:38;;;;;;;4.32;1.67;;;;;;;15.74;90.76;102131.28;4924113;29;20098;-79
2023/08/17 07:33:07;;;;;;;3.47;1.90;;;;;;;15.71;90.93;102132.63;4906745;29;20119;-79
2023/08/17 07:35:33;;;;;;;3.33;1.75;;;;;;;15.69;90.27;102134.78;4892885;29;20100;-78
2023/08/17 07:37:59;;;;;;;4.93;2.55;;;;;;;15.71;91.23;102134.53;4895481;29;20813;-77
2023/08/17 07:40:25;;;;;;;5.88;1.80;;;;;;;15.67;90.61;102139.66;4879824;29;20111;-80
2023/08/17 07:42:50;;;;;;;4.38;2.00;;;;;;;15.67;90.76;102147.78;4892954;29;20498;-78
2023/08/17 07:45:16;;;;;;;4.63;1.60;;;;;;;15.69;91.29;102142.91;4896464;29;20036;-78
2023/08/17 07:47:43;;;;;;;5.22;2.20;;;;;;;15.67;91.11;102152.38;4899338;29;20087;-76
2023/08/17 07:50:09;;;;;;;3.60;1.85;;;;;;;15.66;90.85;102142.66;4893421;29;20473;-79
2023/08/17 07:52:34;;;;;;;;;;;;;;;15.67;90.64;102136.97;4928700;29;20034;-78
2023/08/17 07:55:00;;;;;;;4.50;1.60;;;;;;;15.65;91.05;102146.44;4898062;29;19920;-79
2023/08/17 07:57:50;;;;;;;4.15;1.80;;;;;;;15.63;91.00;102145.88;4912535;29;20036;-77
2023/08/17 08:00:16;;;;;;;;;;;;;;;15.58;90.93;102146.66;4904084;29;20561;-80
2023/08/17 08:02:41;;;;;;;4.65;1.83;;;;;;;15.55;91.34;102148.00;4897012;29;19924;-76
2023/08/17 08:05:08;;;;;;;4.47;2.33;;;;;;;15.57;92.25;102148.53;4919658;29;20047;-78
2023/08/17 08:07:34;;;;;;;4.63;1.52;;;;;;;15.52;91.63;102145.03;4912235;29;20059;-77
2023/08/17 08:10:00;;;;;;;10.18;2.67;;;;;;;15.55;92.49;102139.88;4889471;29;20045;-80
2023/08/17 08:12:26;;;;;;;4.78;1.92;;;;;;;15.56;92.36;102148.81;4882389;29;20036;-78
2023/08/17 08:14:51;;;;;;;3.95;2.28;;;;;;;15.59;93.06;102148.28;4918268;29;20040;-75
2023/08/17 08:17:19;;;;;;;5.97;2.28;;;;;;;15.60;93.74;102143.69;4915581;29;20043;-77
2023/08/17 08:19:50;;;;;;;6.80;2.35;;;;;;;15.60;93.63;102146.38;4920383;29;20127;-78
2023/08/17 08:22:17;;;;;;;3.05;1.98;;;;;;;15.59;93.08;102144.78;4888657;29;20041;-78
2023/08/17 08:24:53;;;;;;;6.00;1.85;;;;;;;15.62;93.48;102146.94;4890632;29;20046;-73
2023/08/17 08:27:20;;;;;;;6.88;2.25;;;;;;;15.66;93.78;102151.56;4914069;29;20055;-77
2023/08/17 08:29:49;;;;;;;5.60;2.30;;;;;;;15.70;93.41;102166.13;4915752;29;20410;-78
2023/08/17 08:32:15;;;;;;;5.15;1.98;;;;;;;15.66;93.76;102143.44;4898705;29;20028;-77
2023/08/17 08:34:41;;;;;;;5.43;2.00;;;;;;;15.66;91.72;102156.16;4880701;29;20058;-78
2023/08/17 08:37:08;;;;;;;4.57;1.90;;;;;;;15.66;91.58;102158.84;4900394;29;20099;-80
2023/08/17 08:39:48;;;;;;;7.97;2.08;;;;;;;15.70;92.31;102158.03;4882302;29;20040;-77
2023/08/17 08:42:14;;;;;;;2.78;1.80;;;;;;;15.62;91.22;102146.94;4894782;29;20051;-77
2023/08/17 08:44:40;;;;;;;4.50;1.60;;;;;;;15.62;90.80;102146.94;4882360;29;20047;-79
2023/08/17 08:47:06;;;;;;;;;;;;;;;15.64;91.35;102155.59;4917498;29;20471;-78
2023/08/17 08:49:38;;;;;;;5.53;1.85;;;;;;;15.57;90.78;102143.13;4916632;29;19926;-78
2023/08/17 08:52:15;;;;;;;4.85;2.22;;;;;;;15.60;91.90;102128.28;4878663;29;20048;-77
2023/08/17 08:54:44;;;;;;;2.80;1.63;;;;;;;15.60;91.43;102131.00;4896184;29;20115;-79
2023/08/17 08:57:14;;;;;;;5.47;2.20;;;;;;;15.53;91.09;102128.56;4888337;29;20047;-77
2023/08/17 08:59:45;;;;;;;4.32;1.77;;;;;;;15.61;92.48;102129.09;4910989;29;20048;-79
2023/08/17 09:02:16;;;;;;;4.28;2.00;;;;;;;15.55;90.31;102118.28;4913233;29;20072;-77
2023/08/17 09:04:45;;;;;;;2.80;1.80;;;;;;;15.53;91.77;102117.75;4898542;29;20038;-78
2023/08/17 09:07:14;;;;;;;5.10;2.42;;;;;;;15.59;91.26;102123.16;4866979;29;20043;-76
2023/08/17 09:09:40;;;;;;;2.78;1.70;;;;;;;15.60;90.94;102124.78;4876678;29;20043;-78
2023/08/17 09:12:10;;;;;;;4.10;2.60;;;;;;;15.62;91.20;102125.34;4910674;29;20040;-76
2023/08/17 09:14:40;;;;;;;2.90;1.90;;;;;;;15.64;90.43;102126.69;4901703;29;20035;-78
2023/08/17 09:17:07;;;;;;;2.83;1.98;;;;;;;15.68;91.09;102113.47;4897178;29;20063;-79
2023/08/17 09:19:36;;;;;;;3.67;1.77;;;;;;;15.72;90.02;102119.97;4899117;29;20111;-77
2023/08/17 09:22:02;;;;;;;;;;;;;;;15.78;90.45;102118.84;4926700;29;20040;-74
2023/08/17 09:24:37;;;;;;;3.10;1.85;;;;;;;15.79;91.30;102120.50;4906593;29;19994;-79
2023/08/17 09:27:03;;;;;;;5.78;2.63;;;;;;;15.92;92.88;102121.81;4931759;29;20102;-78
2023/08/17 09:29:37;;;;;;;3.40;1.50;;;;;;;15.90;90.94;102121.28;4897045;29;20063;-78
2023/08/17 09:32:07;;;;;;;3.50;2.00;;;;;;;15.92;90.36;102124.50;4879607;29;20075;-78
2023/08/17 09:34:32;;;;;;;2.55;1.83;;;;;;;15.92;91.30;102111.84;4897814;29;20036;-79
2023/08/17 09:37:05;;;;;;;3.22;2.03;;;;;;;15.90;90.53;102116.69;4913763;29;20047;-76
2023/08/17 09:39:31;;;;;;;3.42;1.75;;;;;;;15.88;90.80;102110.75;4898468;29;20409;-76
2023/08/17 09:42:00;;;;;;;3.00;1.90;;;;;;;15.91;91.85;102104.00;4906322;29;20037;-77
2023/08/17 09:44:26;;;;;;;2.92;1.70;;;;;;;15.90;90.93;102105.88;4908748;29;20028;-77
2023/08/17 09:46:56;;;;;;;4.53;2.00;;;;;;;15.93;91.77;102102.66;4880851;29;20126;-79
2023/08/17 09:49:24;;;;;;;3.65;1.73;;;;;;;15.84;91.06;102093.47;4890579;29;20056;-78
2023/08/17 09:51:49;;;;;;;5.70;2.10;;;;;;;15.89;92.23;102088.06;4896846;29;20039;-78
2023/08/17 09:54:23;;;;;;;4.18;2.25;;;;;;;15.88;92.06;102091.84;4924585;29;20071;-78
2023/08/17 09:56:58;;;;;;;3.30;1.70;;;;;;;15.82;92.45;102077.53;4898890;29;20099;-77
2023/08/17 09:59:28;;;;;;;3.13;1.95;;;;;;;15.78;92.28;102075.63;4897603;29;20044;-78
2023/08/17 10:02:00;;;;;;;4.22;2.15;;;;;;;15.78;92.54;102086.44;4896423;29;20928;-78
2023/08/17 10:04:29;;;;;;;3.33;1.65;;;;;;;15.77;92.04;102101.03;4926683;29;20029;-77
2023/08/17 10:07:01;;;;;;;4.15;1.77;;;;;;;15.75;92.01;102095.91;4928236;29;20036;-75
2023/08/17 10:09:34;;;;;;;4.35;1.70;;;;;;;15.70;91.17;102104.00;4893258;29;20055;-78
2023/08/17 10:12:05;;;;;;;2.00;1.30;;;;;;;15.61;90.85;102102.09;4897310;29;20042;-77
2023/08/17 10:14:37;;;;;;;2.25;1.40;;;;;;;15.54;91.03;102110.47;4897492;29;20039;-77
2023/08/17 10:17:15;;;;;;;4.70;1.70;;;;;;;15.36;88.88;102111.78;4885928;29;20530;-77
2023/08/17 10:19:58;;;;;;;4.57;1.67;;;;;;;15.38;89.67;102108.84;4893940;29;20498;-74
2023/08/17 10:22:44;;;;;;;2.92;1.67;;;;;;;15.32;90.68;102118.00;4890047;29;20055;-78
2023/08/17 10:25:13;;;;;;;5.22;2.00;;;;;;;15.30;90.93;102115.56;4926397;29;20032;-80
2023/08/17 10:27:43;;;;;;;2.45;1.50;;;;;;;15.25;91.59;102116.38;4882796;29;20099;-78
2023/08/17 10:30:10;;;;;;;5.18;1.75;;;;;;;15.23;91.01;102117.72;4911970;29;20051;-77
2023/08/17 10:32:37;;;;;;;7.68;1.75;;;;;;;15.26;92.34;102118.00;4903231;29;20091;-78
2023/08/17 10:35:04;;;;;;;4.03;2.22;;;;;;;15.17;91.89;102113.38;4879162;29;20107;-79
2023/08/17 10:37:32;;;;;;;3.58;1.30;;;;;;;15.15;91.63;102110.13;4877642;29;20051;-78
2023/08/17 10:40:06;;;;;;;4.15;2.25;;;;;;;15.18;92.65;102112.31;4918175;29;20062;-79
2023/08/17 10:42:33;;;;;;;4.55;1.80;;;;;;;15.19;93.54;102109.34;4914311;29;20410;-81
2023/08/17 10:45:01;;;;;;;3.67;1.85;;;;;;;15.15;92.87;102110.13;4914001;29;20123;-79
2023/08/17 10:47:30;;;;;;;3.53;1.80;;;;;;;15.17;93.48;102107.97;4883213;29;20521;-78
2023/08/17 10:49:58;;;;;;;4.55;1.92;;;;;;;15.17;93.25;102102.59;4918009;29;20048;-77
2023/08/17 10:52:27;;;;;;;2.20;1.55;;;;;;;15.17;93.61;102108.81;4889592;29;20078;-77
2023/08/17 10:54:57;;;;;;;3.67;1.80;;;;;;;15.15;94.17;102115.53;4900355;29;20059;-78
2023/08/17 10:57:38;;;;;;;4.40;1.85;;;;;;;15.12;93.88;102129.56;4894750;29;20048;-76
2023/08/17 11:00:26;;;;;;;3.05;1.85;;;;;;;15.12;94.20;102132.28;4894552;29;20043;-79
2023/08/17 11:02:59;;;;;;;3.50;1.85;;;;;;;15.12;94.33;102141.19;4884706;29;20211;-77
2023/08/17 11:05:34;;;;;;;2.83;1.63;;;;;;;15.15;94.34;102145.22;4923110;29;20036;-80
2023/08/17 11:08:02;;;;;;;3.13;2.03;;;;;;;15.15;94.14;102153.31;4926229;29;20083;-78
2023/08/17 11:10:31;;;;;;;2.60;1.85;;;;;;;15.14;94.50;102157.09;4890443;29;20509;-78
2023/08/17 11:13:01;;;;;;;3.78;1.92;;;;;;;15.12;94.39;102159.25;4910679;29;20044;-79
2023/08/17 11:15:41;;;;;;;4.57;1.90;;;;;;;15.15;94.62;102137.94;4918102;29;20044;-79
2023/08/17 11:18:08;;;;;;;2.88;2.17;;;;;;;15.14;94.07;102143.59;4876214;29;20047;-77
2023/08/17 11:20:36;;;;;;;2.92;1.80;;;;;;;15.12;93.66;102143.06;4886759;29;20071;-78
2023/08/17 11:23:02;;;;;;;3.58;2.00;;;;;;;15.18;94.07;102147.41;4910955;29;20090;-77
2023/08/17 11:25:29;;;;;;;5.63;2.10;;;;;;;15.18;94.27;102132.03;4900137;29;20043;-79
2023/08/17 11:27:54;;;;;;;2.50;1.83;;;;;;;15.17;94.47;102118.78;4881604;29;20040;-78
2023/08/17 11:30:21;;;;;;;;;;;;;;;15.22;95.46;102113.38;4899069;29;20042;-79
2023/08/17 11:32:46;;;;;;;4.40;1.65;;;;;;;15.18;95.62;102102.34;4908703;29;19918;-79